Accueil
METAR-TAF:

METAR-TAF

Aéroports :

Aéroport de Reggio de Calabre

Reggio de Calabre, Italie

latitude: 38-04N, longitude: 015-39E, altitude: 11 m

Observation

Le bulletin a été fait il y a 52 minutes, à 22:50 UTC
Vent 10 kt de nord-est
Température 12°C
Humidité 82%
Pression 1004 hPa
Visibilité: 9000 m
Quelques nuages à une hauteur de 2000 ft
Nuages fragmentés à une hauteur de 4000 ft

METAR: LICR 032250Z 04010KT 9000 FEW020 BKN040 12/09 Q1004 RMK VIS MIN 5000N

Heure: 00:42 (23:42 UTC)

Prévision

Le bulletin a été fait il y a 6 heures et 42 minutes, à 17:00 UTC
Prévision valable du 03 à 18 UTC au 04 à 18 UTC
Vent 8 kt de nord
Visibilité 10 km ou plus
Nuages épars à une hauteur de 4000 ft
Temporairement
du 03 à 18 UTC au 03 à 21 UTC
orage, pluie

TAF: LICR 031700Z 0318/0418 35008KT 9999 SCT040 TEMPO 0318/0321 TSRA

Observations et prévisions météorologiques de plus de 4000 aéroports (messages METAR et TAF).

Les stations disponibles sont représentées par des disques jaunes et rouges sur la carte.

Passer la souris dessus pour voir le nom de la station.

Cliquer dessus pour voir les observations et prévisions météorologiques.

Pour changer de carte: cliquez sur les boutons verts avec une croix noire pour zoomer, sur le bouton vert avec un tiret pour effectuer un zoom arrière, ou sur les flèches vertes pour les cartes adjacentes.


METAR-TAF: